sensor_id;sensor_type;location;lat;lon;timestamp;P1;durP1;ratioP1;P2;durP2;ratioP2
9138;SDS011;4604;48.616;9.548;2023-01-15T00:01:34;0.60;;;0.60;;
9138;SDS011;4604;48.616;9.548;2023-01-15T00:04:02;1.97;;;1.00;;
9138;SDS011;4604;48.616;9.548;2023-01-15T00:06:30;1.17;;;0.60;;
9138;SDS011;4604;48.616;9.548;2023-01-15T00:08:57;0.93;;;0.70;;
9138;SDS011;4604;48.616;9.548;2023-01-15T00:11:24;1.00;;;0.70;;
9138;SDS011;4604;48.616;9.548;2023-01-15T00:13:51;0.50;;;0.30;;
9138;SDS011;4604;48.616;9.548;2023-01-15T00:16:18;0.47;;;0.47;;
9138;SDS011;4604;48.616;9.548;2023-01-15T00:18:51;0.67;;;0.67;;
9138;SDS011;4604;48.616;9.548;2023-01-15T00:21:19;0.47;;;0.43;;
9138;SDS011;4604;48.616;9.548;2023-01-15T00:23:46;0.40;;;0.40;;
9138;SDS011;4604;48.616;9.548;2023-01-15T00:26:30;1.03;;;0.63;;
9138;SDS011;4604;48.616;9.548;2023-01-15T00:29:15;0.77;;;0.70;;
9138;SDS011;4604;48.616;9.548;2023-01-15T00:31:43;0.80;;;0.50;;
9138;SDS011;4604;48.616;9.548;2023-01-15T00:34:17;0.47;;;0.47;;
9138;SDS011;4604;48.616;9.548;2023-01-15T00:36:44;0.20;;;0.20;;
9138;SDS011;4604;48.616;9.548;2023-01-15T00:39:11;0.40;;;0.40;;
9138;SDS011;4604;48.616;9.548;2023-01-15T00:41:38;0.60;;;0.33;;
9138;SDS011;4604;48.616;9.548;2023-01-15T00:44:04;2.97;;;0.60;;
9138;SDS011;4604;48.616;9.548;2023-01-15T00:46:31;1.47;;;0.60;;
9138;SDS011;4604;48.616;9.548;2023-01-15T00:48:58;1.30;;;0.50;;
9138;SDS011;4604;48.616;9.548;2023-01-15T00:51:26;0.60;;;0.60;;
9138;SDS011;4604;48.616;9.548;2023-01-15T00:53:52;0.50;;;0.33;;
9138;SDS011;4604;48.616;9.548;2023-01-15T00:56:19;0.83;;;0.57;;
9138;SDS011;4604;48.616;9.548;2023-01-15T00:58:46;0.87;;;0.40;;
9138;SDS011;4604;48.616;9.548;2023-01-15T01:01:12;0.20;;;0.20;;
9138;SDS011;4604;48.616;9.548;2023-01-15T01:03:39;0.63;;;0.40;;
9138;SDS011;4604;48.616;9.548;2023-01-15T01:06:06;0.80;;;0.70;;
9138;SDS011;4604;48.616;9.548;2023-01-15T01:08:35;0.30;;;0.30;;
9138;SDS011;4604;48.616;9.548;2023-01-15T01:11:03;0.40;;;0.40;;
9138;SDS011;4604;48.616;9.548;2023-01-15T01:13:31;0.53;;;0.53;;
9138;SDS011;4604;48.616;9.548;2023-01-15T01:15:58;0.60;;;0.60;;
9138;SDS011;4604;48.616;9.548;2023-01-15T01:18:25;0.60;;;0.60;;
9138;SDS011;4604;48.616;9.548;2023-01-15T01:20:52;0.50;;;0.50;;
9138;SDS011;4604;48.616;9.548;2023-01-15T01:23:19;0.60;;;0.60;;
9138;SDS011;4604;48.616;9.548;2023-01-15T01:25:49;1.17;;;0.80;;
9138;SDS011;4604;48.616;9.548;2023-01-15T01:28:16;1.00;;;0.90;;
9138;SDS011;4604;48.616;9.548;2023-01-15T01:30:43;1.00;;;0.80;;
9138;SDS011;4604;48.616;9.548;2023-01-15T01:33:09;0.63;;;0.50;;
9138;SDS011;4604;48.616;9.548;2023-01-15T01:35:36;0.80;;;0.70;;
9138;SDS011;4604;48.616;9.548;2023-01-15T01:38:03;0.70;;;0.53;;
9138;SDS011;4604;48.616;9.548;2023-01-15T01:40:29;0.60;;;0.60;;
9138;SDS011;4604;48.616;9.548;2023-01-15T01:42:57;1.13;;;0.90;;
9138;SDS011;4604;48.616;9.548;2023-01-15T01:45:26;0.50;;;0.50;;
9138;SDS011;4604;48.616;9.548;2023-01-15T01:47:55;0.57;;;0.57;;
9138;SDS011;4604;48.616;9.548;2023-01-15T01:50:24;0.50;;;0.50;;
9138;SDS011;4604;48.616;9.548;2023-01-15T01:52:53;0.57;;;0.57;;
9138;SDS011;4604;48.616;9.548;2023-01-15T01:55:23;0.73;;;0.67;;
9138;SDS011;4604;48.616;9.548;2023-01-15T01:57:52;0.60;;;0.60;;
9138;SDS011;4604;48.616;9.548;2023-01-15T02:00:23;1.63;;;0.83;;
9138;SDS011;4604;48.616;9.548;2023-01-15T02:02:50;0.57;;;0.57;;
9138;SDS011;4604;48.616;9.548;2023-01-15T02:05:21;0.30;;;0.30;;
9138;SDS011;4604;48.616;9.548;2023-01-15T02:07:53;0.70;;;0.70;;
9138;SDS011;4604;48.616;9.548;2023-01-15T02:10:20;0.50;;;0.50;;
9138;SDS011;4604;48.616;9.548;2023-01-15T02:12:48;0.53;;;0.50;;
9138;SDS011;4604;48.616;9.548;2023-01-15T02:15:23;0.40;;;0.40;;
9138;SDS011;4604;48.616;9.548;2023-01-15T02:17:55;0.47;;;0.47;;
9138;SDS011;4604;48.616;9.548;2023-01-15T02:20:28;0.77;;;0.70;;
9138;SDS011;4604;48.616;9.548;2023-01-15T02:23:05;0.43;;;0.43;;
9138;SDS011;4604;48.616;9.548;2023-01-15T02:26:08;0.90;;;0.43;;
9138;SDS011;4604;48.616;9.548;2023-01-15T02:28:51;0.40;;;0.40;;
9138;SDS011;4604;48.616;9.548;2023-01-15T02:31:23;0.30;;;0.30;;
9138;SDS011;4604;48.616;9.548;2023-01-15T02:33:55;0.70;;;0.70;;
9138;SDS011;4604;48.616;9.548;2023-01-15T02:36:26;0.50;;;0.50;;
9138;SDS011;4604;48.616;9.548;2023-01-15T02:38:58;0.70;;;0.70;;
9138;SDS011;4604;48.616;9.548;2023-01-15T02:41:29;0.40;;;0.40;;
9138;SDS011;4604;48.616;9.548;2023-01-15T02:44:00;0.50;;;0.40;;
9138;SDS011;4604;48.616;9.548;2023-01-15T02:46:31;0.40;;;0.40;;
9138;SDS011;4604;48.616;9.548;2023-01-15T02:49:01;0.77;;;0.60;;
9138;SDS011;4604;48.616;9.548;2023-01-15T02:51:32;0.40;;;0.30;;
9138;SDS011;4604;48.616;9.548;2023-01-15T02:54:05;0.40;;;0.30;;
9138;SDS011;4604;48.616;9.548;2023-01-15T02:56:36;0.60;;;0.40;;
9138;SDS011;4604;48.616;9.548;2023-01-15T02:59:08;0.87;;;0.23;;
9138;SDS011;4604;48.616;9.548;2023-01-15T03:01:39;0.40;;;0.40;;
9138;SDS011;4604;48.616;9.548;2023-01-15T03:04:11;0.40;;;0.40;;
9138;SDS011;4604;48.616;9.548;2023-01-15T03:06:42;0.30;;;0.30;;
9138;SDS011;4604;48.616;9.548;2023-01-15T03:09:14;0.30;;;0.30;;
9138;SDS011;4604;48.616;9.548;2023-01-15T03:11:43;0.53;;;0.53;;
9138;SDS011;4604;48.616;9.548;2023-01-15T03:14:15;0.43;;;0.40;;
9138;SDS011;4604;48.616;9.548;2023-01-15T03:16:46;0.40;;;0.30;;
9138;SDS011;4604;48.616;9.548;2023-01-15T03:19:20;0.40;;;0.40;;
9138;SDS011;4604;48.616;9.548;2023-01-15T03:21:52;0.87;;;0.40;;
9138;SDS011;4604;48.616;9.548;2023-01-15T03:24:27;0.20;;;0.20;;
9138;SDS011;4604;48.616;9.548;2023-01-15T03:27:01;0.40;;;0.40;;
9138;SDS011;4604;48.616;9.548;2023-01-15T03:29:30;0.40;;;0.40;;
9138;SDS011;4604;48.616;9.548;2023-01-15T03:32:00;0.83;;;0.37;;
9138;SDS011;4604;48.616;9.548;2023-01-15T03:34:29;1.93;;;0.30;;
9138;SDS011;4604;48.616;9.548;2023-01-15T03:37:02;0.43;;;0.40;;
9138;SDS011;4604;48.616;9.548;2023-01-15T03:39:28;0.33;;;0.33;;
9138;SDS011;4604;48.616;9.548;2023-01-15T03:41:58;0.40;;;0.40;;
9138;SDS011;4604;48.616;9.548;2023-01-15T03:44:37;0.30;;;0.30;;
9138;SDS011;4604;48.616;9.548;2023-01-15T03:47:12;0.60;;;0.50;;
9138;SDS011;4604;48.616;9.548;2023-01-15T03:49:50;0.60;;;0.47;;
9138;SDS011;4604;48.616;9.548;2023-01-15T03:52:25;0.23;;;0.23;;
9138;SDS011;4604;48.616;9.548;2023-01-15T03:54:59;0.30;;;0.30;;
9138;SDS011;4604;48.616;9.548;2023-01-15T03:57:37;0.70;;;0.30;;
9138;SDS011;4604;48.616;9.548;2023-01-15T04:00:09;1.03;;;0.40;;
9138;SDS011;4604;48.616;9.548;2023-01-15T04:02:40;1.33;;;0.30;;
9138;SDS011;4604;48.616;9.548;2023-01-15T04:05:09;1.63;;;0.50;;
9138;SDS011;4604;48.616;9.548;2023-01-15T04:07:37;0.40;;;0.40;;
9138;SDS011;4604;48.616;9.548;2023-01-15T04:10:06;2.20;;;0.50;;
9138;SDS011;4604;48.616;9.548;2023-01-15T04:12:34;0.40;;;0.40;;
9138;SDS011;4604;48.616;9.548;2023-01-15T04:15:01;1.93;;;0.63;;
9138;SDS011;4604;48.616;9.548;2023-01-15T04:17:29;0.80;;;0.73;;
9138;SDS011;4604;48.616;9.548;2023-01-15T04:19:55;0.97;;;0.60;;
9138;SDS011;4604;48.616;9.548;2023-01-15T04:22:22;0.43;;;0.40;;
9138;SDS011;4604;48.616;9.548;2023-01-15T04:24:48;0.40;;;0.30;;
9138;SDS011;4604;48.616;9.548;2023-01-15T04:27:15;1.73;;;0.60;;
9138;SDS011;4604;48.616;9.548;2023-01-15T04:29:42;0.50;;;0.50;;
9138;SDS011;4604;48.616;9.548;2023-01-15T04:32:08;0.27;;;0.27;;
9138;SDS011;4604;48.616;9.548;2023-01-15T04:34:36;0.20;;;0.20;;
9138;SDS011;4604;48.616;9.548;2023-01-15T04:37:03;0.63;;;0.37;;
9138;SDS011;4604;48.616;9.548;2023-01-15T04:39:30;0.20;;;0.20;;
9138;SDS011;4604;48.616;9.548;2023-01-15T04:41:57;0.30;;;0.30;;
9138;SDS011;4604;48.616;9.548;2023-01-15T04:44:41;0.30;;;0.20;;
9138;SDS011;4604;48.616;9.548;2023-01-15T04:47:08;0.20;;;0.20;;
9138;SDS011;4604;48.616;9.548;2023-01-15T04:49:34;0.30;;;0.30;;
9138;SDS011;4604;48.616;9.548;2023-01-15T04:52:02;0.10;;;0.10;;
9138;SDS011;4604;48.616;9.548;2023-01-15T04:54:29;0.23;;;0.23;;
9138;SDS011;4604;48.616;9.548;2023-01-15T04:56:56;0.20;;;0.20;;
9138;SDS011;4604;48.616;9.548;2023-01-15T04:59:23;0.30;;;0.30;;
9138;SDS011;4604;48.616;9.548;2023-01-15T05:01:51;0.10;;;0.10;;
9138;SDS011;4604;48.616;9.548;2023-01-15T05:04:18;0.10;;;0.10;;
9138;SDS011;4604;48.616;9.548;2023-01-15T05:06:45;0.53;;;0.10;;
9138;SDS011;4604;48.616;9.548;2023-01-15T05:09:13;0.10;;;0.10;;
9138;SDS011;4604;48.616;9.548;2023-01-15T05:11:40;0.10;;;0.10;;
9138;SDS011;4604;48.616;9.548;2023-01-15T05:14:07;0.10;;;0.10;;
9138;SDS011;4604;48.616;9.548;2023-01-15T05:16:34;0.30;;;0.20;;
9138;SDS011;4604;48.616;9.548;2023-01-15T05:19:02;0.23;;;0.23;;
9138;SDS011;4604;48.616;9.548;2023-01-15T05:21:31;0.20;;;0.20;;
9138;SDS011;4604;48.616;9.548;2023-01-15T05:24:00;0.00;;;0.00;;
9138;SDS011;4604;48.616;9.548;2023-01-15T05:26:30;0.40;;;0.30;;
9138;SDS011;4604;48.616;9.548;2023-01-15T05:28:58;1.00;;;0.20;;
9138;SDS011;4604;48.616;9.548;2023-01-15T05:31:26;0.67;;;0.40;;
9138;SDS011;4604;48.616;9.548;2023-01-15T05:33:54;0.17;;;0.17;;
9138;SDS011;4604;48.616;9.548;2023-01-15T05:36:22;0.27;;;0.20;;
9138;SDS011;4604;48.616;9.548;2023-01-15T05:38:50;0.27;;;0.20;;
9138;SDS011;4604;48.616;9.548;2023-01-15T05:41:18;2.73;;;0.20;;
9138;SDS011;4604;48.616;9.548;2023-01-15T05:44:05;0.67;;;0.20;;
9138;SDS011;4604;48.616;9.548;2023-01-15T05:46:33;0.20;;;0.20;;
9138;SDS011;4604;48.616;9.548;2023-01-15T05:49:02;0.27;;;0.27;;
9138;SDS011;4604;48.616;9.548;2023-01-15T05:51:29;0.30;;;0.30;;
9138;SDS011;4604;48.616;9.548;2023-01-15T05:53:56;0.40;;;0.30;;
9138;SDS011;4604;48.616;9.548;2023-01-15T05:56:23;0.40;;;0.33;;
9138;SDS011;4604;48.616;9.548;2023-01-15T05:58:50;0.20;;;0.20;;
9138;SDS011;4604;48.616;9.548;2023-01-15T06:01:18;0.20;;;0.20;;
9138;SDS011;4604;48.616;9.548;2023-01-15T06:03:46;0.20;;;0.20;;
9138;SDS011;4604;48.616;9.548;2023-01-15T06:06:13;0.10;;;0.10;;
9138;SDS011;4604;48.616;9.548;2023-01-15T06:08:41;0.30;;;0.13;;
9138;SDS011;4604;48.616;9.548;2023-01-15T06:11:08;1.03;;;0.20;;
9138;SDS011;4604;48.616;9.548;2023-01-15T06:13:36;0.20;;;0.20;;
9138;SDS011;4604;48.616;9.548;2023-01-15T06:16:03;0.70;;;0.30;;
9138;SDS011;4604;48.616;9.548;2023-01-15T06:18:32;0.67;;;0.53;;
9138;SDS011;4604;48.616;9.548;2023-01-15T06:21:01;0.10;;;0.10;;
9138;SDS011;4604;48.616;9.548;2023-01-15T06:23:29;0.87;;;0.27;;
9138;SDS011;4604;48.616;9.548;2023-01-15T06:25:58;2.47;;;0.20;;
9138;SDS011;4604;48.616;9.548;2023-01-15T06:28:25;0.13;;;0.13;;
9138;SDS011;4604;48.616;9.548;2023-01-15T06:30:52;0.50;;;0.50;;
9138;SDS011;4604;48.616;9.548;2023-01-15T06:33:19;1.63;;;0.50;;
9138;SDS011;4604;48.616;9.548;2023-01-15T06:35:47;1.13;;;0.40;;
9138;SDS011;4604;48.616;9.548;2023-01-15T06:38:14;0.30;;;0.30;;
9138;SDS011;4604;48.616;9.548;2023-01-15T06:40:40;0.90;;;0.20;;
9138;SDS011;4604;48.616;9.548;2023-01-15T06:43:07;0.83;;;0.63;;
9138;SDS011;4604;48.616;9.548;2023-01-15T06:45:53;0.50;;;0.50;;
9138;SDS011;4604;48.616;9.548;2023-01-15T06:48:36;2.93;;;0.83;;
9138;SDS011;4604;48.616;9.548;2023-01-15T06:51:05;0.40;;;0.40;;
9138;SDS011;4604;48.616;9.548;2023-01-15T06:53:31;1.20;;;0.87;;
9138;SDS011;4604;48.616;9.548;2023-01-15T06:55:58;0.83;;;0.80;;
9138;SDS011;4604;48.616;9.548;2023-01-15T06:58:26;0.87;;;0.73;;
9138;SDS011;4604;48.616;9.548;2023-01-15T07:00:52;0.93;;;0.87;;
9138;SDS011;4604;48.616;9.548;2023-01-15T07:03:20;2.43;;;0.50;;
9138;SDS011;4604;48.616;9.548;2023-01-15T07:05:47;0.77;;;0.70;;
9138;SDS011;4604;48.616;9.548;2023-01-15T07:08:15;0.60;;;0.60;;
9138;SDS011;4604;48.616;9.548;2023-01-15T07:10:42;0.70;;;0.70;;
9138;SDS011;4604;48.616;9.548;2023-01-15T07:13:08;0.50;;;0.33;;
9138;SDS011;4604;48.616;9.548;2023-01-15T07:15:36;0.80;;;0.80;;
9138;SDS011;4604;48.616;9.548;2023-01-15T07:18:03;0.60;;;0.57;;
9138;SDS011;4604;48.616;9.548;2023-01-15T07:20:30;0.70;;;0.40;;
9138;SDS011;4604;48.616;9.548;2023-01-15T07:22:57;0.50;;;0.50;;
9138;SDS011;4604;48.616;9.548;2023-01-15T07:25:25;0.50;;;0.50;;
9138;SDS011;4604;48.616;9.548;2023-01-15T07:27:51;0.60;;;0.50;;
9138;SDS011;4604;48.616;9.548;2023-01-15T07:30:18;0.70;;;0.70;;
9138;SDS011;4604;48.616;9.548;2023-01-15T07:32:45;0.70;;;0.50;;
9138;SDS011;4604;48.616;9.548;2023-01-15T07:35:11;0.53;;;0.53;;
9138;SDS011;4604;48.616;9.548;2023-01-15T07:37:38;0.53;;;0.43;;
9138;SDS011;4604;48.616;9.548;2023-01-15T07:40:05;0.40;;;0.40;;
9138;SDS011;4604;48.616;9.548;2023-01-15T07:42:33;0.60;;;0.60;;
9138;SDS011;4604;48.616;9.548;2023-01-15T07:45:18;1.47;;;0.60;;
9138;SDS011;4604;48.616;9.548;2023-01-15T07:48:02;0.30;;;0.30;;
9138;SDS011;4604;48.616;9.548;2023-01-15T07:50:47;0.40;;;0.40;;
9138;SDS011;4604;48.616;9.548;2023-01-15T07:53:14;0.70;;;0.70;;
9138;SDS011;4604;48.616;9.548;2023-01-15T07:55:41;1.47;;;0.60;;
9138;SDS011;4604;48.616;9.548;2023-01-15T07:58:09;0.47;;;0.47;;
9138;SDS011;4604;48.616;9.548;2023-01-15T08:00:35;1.00;;;0.50;;
9138;SDS011;4604;48.616;9.548;2023-01-15T08:03:02;1.20;;;0.80;;
9138;SDS011;4604;48.616;9.548;2023-01-15T08:05:30;1.13;;;0.50;;
9138;SDS011;4604;48.616;9.548;2023-01-15T08:07:57;0.30;;;0.30;;
9138;SDS011;4604;48.616;9.548;2023-01-15T08:10:23;0.20;;;0.20;;
9138;SDS011;4604;48.616;9.548;2023-01-15T08:12:50;0.63;;;0.60;;
9138;SDS011;4604;48.616;9.548;2023-01-15T08:15:38;0.30;;;0.30;;
9138;SDS011;4604;48.616;9.548;2023-01-15T08:18:08;0.83;;;0.53;;
9138;SDS011;4604;48.616;9.548;2023-01-15T08:20:34;0.80;;;0.70;;
9138;SDS011;4604;48.616;9.548;2023-01-15T08:23:01;0.20;;;0.20;;
9138;SDS011;4604;48.616;9.548;2023-01-15T08:25:28;0.67;;;0.50;;
9138;SDS011;4604;48.616;9.548;2023-01-15T08:27:54;3.80;;;0.40;;
9138;SDS011;4604;48.616;9.548;2023-01-15T08:30:25;0.20;;;0.20;;
9138;SDS011;4604;48.616;9.548;2023-01-15T08:32:57;0.33;;;0.33;;
9138;SDS011;4604;48.616;9.548;2023-01-15T08:35:24;0.47;;;0.47;;
9138;SDS011;4604;48.616;9.548;2023-01-15T08:37:51;2.33;;;1.73;;
9138;SDS011;4604;48.616;9.548;2023-01-15T08:40:18;2.70;;;1.83;;
9138;SDS011;4604;48.616;9.548;2023-01-15T08:42:44;0.50;;;0.50;;
9138;SDS011;4604;48.616;9.548;2023-01-15T08:45:11;2.93;;;0.80;;
9138;SDS011;4604;48.616;9.548;2023-01-15T08:47:38;0.70;;;0.70;;
9138;SDS011;4604;48.616;9.548;2023-01-15T08:50:07;2.53;;;1.60;;
9138;SDS011;4604;48.616;9.548;2023-01-15T08:52:35;3.60;;;1.80;;
9138;SDS011;4604;48.616;9.548;2023-01-15T08:55:02;3.40;;;2.30;;
9138;SDS011;4604;48.616;9.548;2023-01-15T08:57:30;3.77;;;1.50;;
9138;SDS011;4604;48.616;9.548;2023-01-15T08:59:57;2.80;;;1.40;;
9138;SDS011;4604;48.616;9.548;2023-01-15T09:02:23;1.00;;;0.73;;
9138;SDS011;4604;48.616;9.548;2023-01-15T09:04:50;1.73;;;1.10;;
9138;SDS011;4604;48.616;9.548;2023-01-15T09:07:18;2.53;;;0.60;;
9138;SDS011;4604;48.616;9.548;2023-01-15T09:09:45;0.80;;;0.80;;
9138;SDS011;4604;48.616;9.548;2023-01-15T09:12:12;0.70;;;0.70;;
9138;SDS011;4604;48.616;9.548;2023-01-15T09:14:39;0.77;;;0.77;;
9138;SDS011;4604;48.616;9.548;2023-01-15T09:17:06;0.70;;;0.70;;
9138;SDS011;4604;48.616;9.548;2023-01-15T09:19:32;1.07;;;0.77;;
9138;SDS011;4604;48.616;9.548;2023-01-15T09:21:59;1.53;;;1.10;;
9138;SDS011;4604;48.616;9.548;2023-01-15T09:24:27;1.17;;;0.90;;
9138;SDS011;4604;48.616;9.548;2023-01-15T09:26:54;0.90;;;0.90;;
9138;SDS011;4604;48.616;9.548;2023-01-15T09:29:20;1.10;;;1.00;;
9138;SDS011;4604;48.616;9.548;2023-01-15T09:31:47;1.20;;;1.10;;
9138;SDS011;4604;48.616;9.548;2023-01-15T09:34:14;2.80;;;2.47;;
9138;SDS011;4604;48.616;9.548;2023-01-15T09:36:41;6.97;;;2.80;;
9138;SDS011;4604;48.616;9.548;2023-01-15T09:39:09;4.87;;;3.43;;
9138;SDS011;4604;48.616;9.548;2023-01-15T09:41:46;4.67;;;2.53;;
9138;SDS011;4604;48.616;9.548;2023-01-15T09:44:34;2.00;;;1.73;;
9138;SDS011;4604;48.616;9.548;2023-01-15T09:47:10;1.70;;;1.60;;
9138;SDS011;4604;48.616;9.548;2023-01-15T09:49:44;2.67;;;1.80;;
9138;SDS011;4604;48.616;9.548;2023-01-15T09:52:29;1.60;;;1.50;;
9138;SDS011;4604;48.616;9.548;2023-01-15T09:55:08;2.50;;;1.73;;
9138;SDS011;4604;48.616;9.548;2023-01-15T09:57:42;1.83;;;1.73;;
9138;SDS011;4604;48.616;9.548;2023-01-15T10:00:12;2.07;;;1.87;;
9138;SDS011;4604;48.616;9.548;2023-01-15T10:02:44;1.43;;;1.33;;
9138;SDS011;4604;48.616;9.548;2023-01-15T10:05:16;5.43;;;3.50;;
9138;SDS011;4604;48.616;9.548;2023-01-15T10:07:50;3.53;;;2.10;;
9138;SDS011;4604;48.616;9.548;2023-01-15T10:10:23;3.80;;;3.03;;
9138;SDS011;4604;48.616;9.548;2023-01-15T10:13:01;1.90;;;1.47;;
9138;SDS011;4604;48.616;9.548;2023-01-15T10:15:35;1.77;;;1.43;;
9138;SDS011;4604;48.616;9.548;2023-01-15T10:18:04;3.30;;;1.57;;
9138;SDS011;4604;48.616;9.548;2023-01-15T10:20:37;1.97;;;1.70;;
9138;SDS011;4604;48.616;9.548;2023-01-15T10:23:30;1.40;;;1.20;;
9138;SDS011;4604;48.616;9.548;2023-01-15T10:26:01;2.07;;;1.00;;
9138;SDS011;4604;48.616;9.548;2023-01-15T10:28:37;0.77;;;0.77;;
9138;SDS011;4604;48.616;9.548;2023-01-15T10:31:19;1.47;;;1.23;;
9138;SDS011;4604;48.616;9.548;2023-01-15T10:33:52;1.60;;;1.50;;
9138;SDS011;4604;48.616;9.548;2023-01-15T10:36:29;2.00;;;1.53;;
9138;SDS011;4604;48.616;9.548;2023-01-15T10:39:03;2.50;;;1.30;;
9138;SDS011;4604;48.616;9.548;2023-01-15T10:41:43;2.07;;;1.50;;
9138;SDS011;4604;48.616;9.548;2023-01-15T10:44:26;2.50;;;2.03;;
9138;SDS011;4604;48.616;9.548;2023-01-15T10:47:02;2.07;;;1.80;;
9138;SDS011;4604;48.616;9.548;2023-01-15T10:49:36;1.43;;;1.33;;
9138;SDS011;4604;48.616;9.548;2023-01-15T10:52:06;4.97;;;3.03;;
9138;SDS011;4604;48.616;9.548;2023-01-15T10:54:45;2.40;;;2.03;;
9138;SDS011;4604;48.616;9.548;2023-01-15T10:57:15;1.57;;;1.23;;
9138;SDS011;4604;48.616;9.548;2023-01-15T10:59:54;1.30;;;1.20;;
9138;SDS011;4604;48.616;9.548;2023-01-15T11:02:24;3.03;;;1.10;;
9138;SDS011;4604;48.616;9.548;2023-01-15T11:04:55;1.90;;;1.33;;
9138;SDS011;4604;48.616;9.548;2023-01-15T11:07:23;1.77;;;1.17;;
9138;SDS011;4604;48.616;9.548;2023-01-15T11:09:56;2.30;;;1.83;;
9138;SDS011;4604;48.616;9.548;2023-01-15T11:12:27;3.57;;;2.30;;
9138;SDS011;4604;48.616;9.548;2023-01-15T11:15:14;1.57;;;1.07;;
9138;SDS011;4604;48.616;9.548;2023-01-15T11:18:06;2.03;;;1.50;;
9138;SDS011;4604;48.616;9.548;2023-01-15T11:20:56;0.80;;;0.80;;
9138;SDS011;4604;48.616;9.548;2023-01-15T11:23:23;1.00;;;0.90;;
9138;SDS011;4604;48.616;9.548;2023-01-15T11:25:51;1.67;;;1.30;;
9138;SDS011;4604;48.616;9.548;2023-01-15T11:28:30;1.00;;;0.90;;
9138;SDS011;4604;48.616;9.548;2023-01-15T11:31:00;4.60;;;2.20;;
9138;SDS011;4604;48.616;9.548;2023-01-15T11:33:28;1.80;;;1.50;;
9138;SDS011;4604;48.616;9.548;2023-01-15T11:35:56;1.63;;;1.37;;
9138;SDS011;4604;48.616;9.548;2023-01-15T11:38:25;2.10;;;1.73;;
9138;SDS011;4604;48.616;9.548;2023-01-15T11:40:53;2.37;;;1.60;;
9138;SDS011;4604;48.616;9.548;2023-01-15T11:43:24;1.53;;;1.43;;
9138;SDS011;4604;48.616;9.548;2023-01-15T11:46:28;2.40;;;1.90;;
9138;SDS011;4604;48.616;9.548;2023-01-15T11:49:14;1.17;;;1.07;;
9138;SDS011;4604;48.616;9.548;2023-01-15T11:51:59;1.40;;;1.30;;
9138;SDS011;4604;48.616;9.548;2023-01-15T11:54:28;1.77;;;1.00;;
9138;SDS011;4604;48.616;9.548;2023-01-15T11:56:56;4.20;;;1.57;;
9138;SDS011;4604;48.616;9.548;2023-01-15T11:59:23;1.20;;;1.10;;
9138;SDS011;4604;48.616;9.548;2023-01-15T12:01:52;1.20;;;1.10;;
9138;SDS011;4604;48.616;9.548;2023-01-15T12:04:29;1.53;;;1.07;;
9138;SDS011;4604;48.616;9.548;2023-01-15T12:07:00;3.57;;;2.20;;
9138;SDS011;4604;48.616;9.548;2023-01-15T12:09:34;1.43;;;1.33;;
9138;SDS011;4604;48.616;9.548;2023-01-15T12:12:10;1.30;;;1.20;;
9138;SDS011;4604;48.616;9.548;2023-01-15T12:14:59;0.83;;;0.83;;
9138;SDS011;4604;48.616;9.548;2023-01-15T12:17:51;1.27;;;1.17;;
9138;SDS011;4604;48.616;9.548;2023-01-15T12:20:31;1.80;;;1.70;;
9138;SDS011;4604;48.616;9.548;2023-01-15T12:23:17;3.63;;;1.97;;
9138;SDS011;4604;48.616;9.548;2023-01-15T12:26:01;1.90;;;1.70;;
9138;SDS011;4604;48.616;9.548;2023-01-15T12:28:34;1.80;;;1.50;;
9138;SDS011;4604;48.616;9.548;2023-01-15T12:31:05;2.37;;;1.97;;
9138;SDS011;4604;48.616;9.548;2023-01-15T12:33:41;2.47;;;1.90;;
9138;SDS011;4604;48.616;9.548;2023-01-15T12:36:12;3.80;;;2.47;;
9138;SDS011;4604;48.616;9.548;2023-01-15T12:38:46;2.40;;;1.77;;
9138;SDS011;4604;48.616;9.548;2023-01-15T12:41:16;2.50;;;2.00;;
9138;SDS011;4604;48.616;9.548;2023-01-15T12:43:49;2.17;;;1.73;;
9138;SDS011;4604;48.616;9.548;2023-01-15T12:46:37;1.53;;;1.43;;
9138;SDS011;4604;48.616;9.548;2023-01-15T12:49:12;2.60;;;1.50;;
9138;SDS011;4604;48.616;9.548;2023-01-15T12:51:48;1.10;;;1.00;;
9138;SDS011;4604;48.616;9.548;2023-01-15T12:54:20;1.40;;;1.30;;
9138;SDS011;4604;48.616;9.548;2023-01-15T12:56:54;0.83;;;0.70;;
9138;SDS011;4604;48.616;9.548;2023-01-15T12:59:27;1.25;;;1.10;;
9138;SDS011;4604;48.616;9.548;2023-01-15T13:02:02;0.80;;;0.63;;
9138;SDS011;4604;48.616;9.548;2023-01-15T13:04:41;1.20;;;1.10;;
9138;SDS011;4604;48.616;9.548;2023-01-15T13:07:13;2.57;;;1.10;;
9138;SDS011;4604;48.616;9.548;2023-01-15T13:09:47;4.00;;;1.30;;
9138;SDS011;4604;48.616;9.548;2023-01-15T13:12:19;0.90;;;0.77;;
9138;SDS011;4604;48.616;9.548;2023-01-15T13:14:45;1.60;;;1.10;;
9138;SDS011;4604;48.616;9.548;2023-01-15T13:17:16;1.03;;;0.80;;
9138;SDS011;4604;48.616;9.548;2023-01-15T13:19:55;1.70;;;0.70;;
9138;SDS011;4604;48.616;9.548;2023-01-15T13:22:31;1.23;;;1.00;;
9138;SDS011;4604;48.616;9.548;2023-01-15T13:25:17;0.97;;;0.93;;
9138;SDS011;4604;48.616;9.548;2023-01-15T13:27:54;1.53;;;1.20;;
9138;SDS011;4604;48.616;9.548;2023-01-15T13:30:32;2.20;;;0.83;;
9138;SDS011;4604;48.616;9.548;2023-01-15T13:33:13;0.90;;;0.70;;
9138;SDS011;4604;48.616;9.548;2023-01-15T13:35:48;1.67;;;1.30;;
9138;SDS011;4604;48.616;9.548;2023-01-15T13:38:19;1.80;;;1.07;;
9138;SDS011;4604;48.616;9.548;2023-01-15T13:40:50;1.30;;;1.20;;
9138;SDS011;4604;48.616;9.548;2023-01-15T13:43:25;0.70;;;0.43;;
9138;SDS011;4604;48.616;9.548;2023-01-15T13:45:56;2.07;;;1.20;;
9138;SDS011;4604;48.616;9.548;2023-01-15T13:48:24;1.07;;;0.90;;
9138;SDS011;4604;48.616;9.548;2023-01-15T13:50:58;2.13;;;1.40;;
9138;SDS011;4604;48.616;9.548;2023-01-15T13:53:27;0.60;;;0.60;;
9138;SDS011;4604;48.616;9.548;2023-01-15T13:55:57;0.73;;;0.73;;
9138;SDS011;4604;48.616;9.548;2023-01-15T13:58:30;1.00;;;0.80;;
9138;SDS011;4604;48.616;9.548;2023-01-15T14:01:08;0.70;;;0.70;;
9138;SDS011;4604;48.616;9.548;2023-01-15T14:03:58;1.13;;;1.00;;
9138;SDS011;4604;48.616;9.548;2023-01-15T14:06:38;2.07;;;1.00;;
9138;SDS011;4604;48.616;9.548;2023-01-15T14:09:11;1.03;;;0.80;;
9138;SDS011;4604;48.616;9.548;2023-01-15T14:11:42;1.10;;;1.00;;
9138;SDS011;4604;48.616;9.548;2023-01-15T14:14:39;0.67;;;0.50;;
9138;SDS011;4604;48.616;9.548;2023-01-15T14:20:37;1.77;;;0.80;;
9138;SDS011;4604;48.616;9.548;2023-01-15T14:26:25;2.23;;;1.40;;
9138;SDS011;4604;48.616;9.548;2023-01-15T14:29:01;3.97;;;1.50;;
9138;SDS011;4604;48.616;9.548;2023-01-15T14:31:42;2.47;;;1.40;;
9138;SDS011;4604;48.616;9.548;2023-01-15T14:34:16;1.83;;;1.10;;
9138;SDS011;4604;48.616;9.548;2023-01-15T14:36:48;1.90;;;0.70;;
9138;SDS011;4604;48.616;9.548;2023-01-15T14:42:08;0.80;;;0.70;;
9138;SDS011;4604;48.616;9.548;2023-01-15T14:44:56;1.27;;;1.13;;
9138;SDS011;4604;48.616;9.548;2023-01-15T14:47:27;2.60;;;1.40;;
9138;SDS011;4604;48.616;9.548;2023-01-15T14:50:00;4.57;;;1.33;;
9138;SDS011;4604;48.616;9.548;2023-01-15T14:52:46;0.93;;;0.80;;
9138;SDS011;4604;48.616;9.548;2023-01-15T14:55:16;3.37;;;1.17;;
9138;SDS011;4604;48.616;9.548;2023-01-15T14:57:45;2.70;;;1.30;;
9138;SDS011;4604;48.616;9.548;2023-01-15T15:00:20;1.50;;;0.67;;
9138;SDS011;4604;48.616;9.548;2023-01-15T15:02:52;2.00;;;1.47;;
9138;SDS011;4604;48.616;9.548;2023-01-15T15:05:19;1.40;;;0.80;;
9138;SDS011;4604;48.616;9.548;2023-01-15T15:07:48;2.43;;;1.50;;
9138;SDS011;4604;48.616;9.548;2023-01-15T15:10:20;1.13;;;0.80;;
9138;SDS011;4604;48.616;9.548;2023-01-15T15:12:53;0.80;;;0.80;;
9138;SDS011;4604;48.616;9.548;2023-01-15T15:15:34;5.20;;;1.57;;
9138;SDS011;4604;48.616;9.548;2023-01-15T15:18:07;1.50;;;1.13;;
9138;SDS011;4604;48.616;9.548;2023-01-15T15:20:46;1.47;;;1.20;;
9138;SDS011;4604;48.616;9.548;2023-01-15T15:23:19;2.13;;;0.77;;
9138;SDS011;4604;48.616;9.548;2023-01-15T15:25:56;1.13;;;0.80;;
9138;SDS011;4604;48.616;9.548;2023-01-15T15:28:24;1.20;;;1.10;;
9138;SDS011;4604;48.616;9.548;2023-01-15T15:30:51;0.67;;;0.67;;
9138;SDS011;4604;48.616;9.548;2023-01-15T15:33:21;0.73;;;0.70;;
9138;SDS011;4604;48.616;9.548;2023-01-15T15:35:51;0.77;;;0.73;;
9138;SDS011;4604;48.616;9.548;2023-01-15T15:38:20;1.67;;;0.97;;
9138;SDS011;4604;48.616;9.548;2023-01-15T15:40:50;1.30;;;1.07;;
9138;SDS011;4604;48.616;9.548;2023-01-15T15:43:21;1.00;;;0.80;;
9138;SDS011;4604;48.616;9.548;2023-01-15T15:46:20;0.80;;;0.80;;
9138;SDS011;4604;48.616;9.548;2023-01-15T15:49:07;2.83;;;1.30;;
9138;SDS011;4604;48.616;9.548;2023-01-15T15:51:35;1.63;;;1.10;;